UAL155 PKWA-PKMJ
Flight info
| Callsign | UAL155 |
|---|---|
| Flight time | 0h 44m |
| Altitude | 29000 |
| Route | CURCH WOZTI |
| Aircraft | B738/M-SDE2E3FGHIRWXY/LB1 |
Departure
| Time | 2026-04-18 00:59 |
|---|---|
| Airport | Bucholz Army Air Field (PKWA) |
Arrival
| Time | 2026-04-18 01:43 |
|---|---|
| Airport | Marshall Islands International Airport (PKMJ) |
| Time | Latitude | Longitude | Altitude | Speed | Heading |
|---|---|---|---|---|---|
| 2026-04-18 00:39 | 8.72698 | 167.74090 | -50 ft | 0 kts | 118° |
| 2026-04-18 00:51 | 8.72691 | 167.74100 | -40 ft | 3 kts | 126° |
| 2026-04-18 00:52 | 8.72668 | 167.74123 | -56 ft | 6 kts | 140° |
| 2026-04-18 00:52 | 8.72617 | 167.74144 | -43 ft | 10 kts | 170° |
| 2026-04-18 00:52 | 8.72542 | 167.74136 | -41 ft | 12 kts | 199° |
| 2026-04-18 00:52 | 8.72464 | 167.74106 | -37 ft | 12 kts | 209° |
| 2026-04-18 00:53 | 8.72432 | 167.74040 | -45 ft | 10 kts | 253° |
| 2026-04-18 00:53 | 8.72408 | 167.73975 | -39 ft | 10 kts | 233° |
| 2026-04-18 00:53 | 8.72363 | 167.73932 | -47 ft | 9 kts | 243° |
| 2026-04-18 00:53 | 8.72345 | 167.73874 | -43 ft | 8 kts | 253° |
| 2026-04-18 00:54 | 8.72328 | 167.73818 | -44 ft | 8 kts | 254° |
| 2026-04-18 00:54 | 8.72311 | 167.73764 | -39 ft | 8 kts | 252° |
| 2026-04-18 00:54 | 8.72294 | 167.73709 | -37 ft | 9 kts | 253° |
| 2026-04-18 00:54 | 8.72274 | 167.73641 | -43 ft | 12 kts | 252° |
| 2026-04-18 00:55 | 8.72256 | 167.73585 | -46 ft | 14 kts | 252° |
| 2026-04-18 00:55 | 8.72225 | 167.73484 | -37 ft | 16 kts | 252° |
| 2026-04-18 00:55 | 8.72190 | 167.73368 | -47 ft | 17 kts | 253° |
| 2026-04-18 00:55 | 8.72142 | 167.73216 | -48 ft | 17 kts | 252° |
| 2026-04-18 00:56 | 8.72109 | 167.73107 | -48 ft | 16 kts | 252° |
| 2026-04-18 00:56 | 8.72087 | 167.73036 | -51 ft | 16 kts | 252° |
| 2026-04-18 00:56 | 8.72056 | 167.72933 | -44 ft | 15 kts | 252° |
| 2026-04-18 00:56 | 8.72025 | 167.72836 | -43 ft | 15 kts | 252° |
| 2026-04-18 00:57 | 8.71991 | 167.72724 | -38 ft | 17 kts | 253° |
| 2026-04-18 00:57 | 8.71956 | 167.72610 | -53 ft | 17 kts | 253° |
| 2026-04-18 00:57 | 8.71922 | 167.72501 | -40 ft | 16 kts | 252° |
| 2026-04-18 00:57 | 8.71889 | 167.72395 | -47 ft | 15 kts | 252° |
| 2026-04-18 00:58 | 8.71858 | 167.72308 | -46 ft | 10 kts | 233° |
| 2026-04-18 00:58 | 8.71822 | 167.72292 | -37 ft | 5 kts | 183° |
| 2026-04-18 00:58 | 8.71786 | 167.72299 | -50 ft | 5 kts | 158° |
| 2026-04-18 00:58 | 8.71759 | 167.72326 | -41 ft | 6 kts | 110° |
| 2026-04-18 00:59 | 8.71772 | 167.72386 | -38 ft | 22 kts | 73° |
| 2026-04-18 00:59 | 8.71894 | 167.72784 | -45 ft | 96 kts | 73° |
| 2026-04-18 00:59 | 8.72154 | 167.73638 | -16 ft | 154 kts | 71° |
| 2026-04-18 00:59 | 8.72451 | 167.74711 | 642 ft | 157 kts | 75° |
| 2026-04-18 01:00 | 8.72473 | 167.75862 | 1225 ft | 177 kts | 101° |
| 2026-04-18 01:00 | 8.71932 | 167.77017 | 2001 ft | 181 kts | 116° |
| 2026-04-18 01:00 | 8.71292 | 167.78143 | 2667 ft | 195 kts | 115° |
| 2026-04-18 01:00 | 8.70596 | 167.79402 | 2915 ft | 221 kts | 116° |
| 2026-04-18 01:01 | 8.69803 | 167.80844 | 3215 ft | 246 kts | 116° |
| 2026-04-18 01:01 | 8.68960 | 167.82391 | 3871 ft | 254 kts | 116° |
| 2026-04-18 01:01 | 8.68109 | 167.83966 | 4732 ft | 256 kts | 116° |
| 2026-04-18 01:01 | 8.67254 | 167.85561 | 5519 ft | 261 kts | 116° |
| 2026-04-18 01:02 | 8.66382 | 167.87194 | 6239 ft | 266 kts | 116° |
| 2026-04-18 01:02 | 8.65510 | 167.88846 | 7044 ft | 267 kts | 115° |
| 2026-04-18 01:02 | 8.64627 | 167.90527 | 7668 ft | 274 kts | 115° |
| 2026-04-18 01:02 | 8.63747 | 167.92237 | 8438 ft | 275 kts | 113° |
| 2026-04-18 01:03 | 8.62952 | 167.94009 | 9171 ft | 277 kts | 111° |
| 2026-04-18 01:03 | 8.62162 | 167.95802 | 9881 ft | 283 kts | 113° |
| 2026-04-18 01:03 | 8.61316 | 167.97603 | 10367 ft | 295 kts | 114° |
| 2026-04-18 01:03 | 8.60384 | 167.99542 | 10532 ft | 317 kts | 114° |
| 2026-04-18 01:04 | 8.59391 | 168.01609 | 10748 ft | 335 kts | 114° |
| 2026-04-18 01:04 | 8.58369 | 168.03739 | 11373 ft | 338 kts | 114° |
| 2026-04-18 01:04 | 8.57337 | 168.05899 | 11995 ft | 342 kts | 113° |
| 2026-04-18 01:04 | 8.56300 | 168.08080 | 12627 ft | 346 kts | 113° |
| 2026-04-18 01:05 | 8.55253 | 168.10290 | 13285 ft | 350 kts | 114° |
| 2026-04-18 01:05 | 8.54197 | 168.12524 | 13895 ft | 355 kts | 114° |
| 2026-04-18 01:05 | 8.53139 | 168.14763 | 14482 ft | 357 kts | 113° |
| 2026-04-18 01:05 | 8.52054 | 168.17060 | 15175 ft | 359 kts | 113° |
| 2026-04-18 01:06 | 8.50985 | 168.19324 | 15738 ft | 364 kts | 114° |
| 2026-04-18 01:06 | 8.49887 | 168.21650 | 16252 ft | 369 kts | 113° |
| 2026-04-18 01:06 | 8.48778 | 168.23998 | 16905 ft | 371 kts | 113° |
| 2026-04-18 01:06 | 8.47660 | 168.26367 | 17471 ft | 375 kts | 113° |
| 2026-04-18 01:07 | 8.46534 | 168.28753 | 18050 ft | 379 kts | 114° |
| 2026-04-18 01:07 | 8.45390 | 168.31177 | 18507 ft | 384 kts | 114° |
| 2026-04-18 01:07 | 8.44234 | 168.33623 | 19026 ft | 386 kts | 114° |
| 2026-04-18 01:07 | 8.43074 | 168.36077 | 19508 ft | 389 kts | 113° |
| 2026-04-18 01:08 | 8.41900 | 168.38559 | 19969 ft | 394 kts | 113° |
| 2026-04-18 01:08 | 8.40714 | 168.41068 | 20407 ft | 398 kts | 114° |
| 2026-04-18 01:08 | 8.39518 | 168.43600 | 20930 ft | 399 kts | 114° |
| 2026-04-18 01:08 | 8.38320 | 168.46137 | 21416 ft | 402 kts | 113° |
| 2026-04-18 01:09 | 8.37109 | 168.48699 | 21811 ft | 406 kts | 114° |
| 2026-04-18 01:09 | 8.35901 | 168.51253 | 22225 ft | 410 kts | 113° |
| 2026-04-18 01:09 | 8.34667 | 168.53858 | 22703 ft | 412 kts | 113° |
| 2026-04-18 01:09 | 8.33427 | 168.56476 | 23166 ft | 414 kts | 114° |
| 2026-04-18 01:10 | 8.32179 | 168.59114 | 23523 ft | 419 kts | 114° |
| 2026-04-18 01:10 | 8.30918 | 168.61778 | 23846 ft | 421 kts | 114° |
| 2026-04-18 01:10 | 8.29653 | 168.64453 | 24334 ft | 420 kts | 113° |
| 2026-04-18 01:10 | 8.28405 | 168.67107 | 24847 ft | 417 kts | 112° |
| 2026-04-18 01:11 | 8.27179 | 168.69756 | 25337 ft | 417 kts | 113° |
| 2026-04-18 01:11 | 8.25954 | 168.72416 | 25756 ft | 417 kts | 113° |
| 2026-04-18 01:11 | 8.24732 | 168.75071 | 26255 ft | 416 kts | 112° |
| 2026-04-18 01:11 | 8.23517 | 168.77713 | 26791 ft | 414 kts | 113° |
| 2026-04-18 01:12 | 8.22304 | 168.80350 | 27295 ft | 414 kts | 112° |
| 2026-04-18 01:12 | 8.21094 | 168.82980 | 27804 ft | 412 kts | 112° |
| 2026-04-18 01:12 | 8.19889 | 168.85594 | 28349 ft | 410 kts | 113° |
| 2026-04-18 01:12 | 8.18696 | 168.88175 | 28832 ft | 410 kts | 113° |
| 2026-04-18 01:13 | 8.16305 | 168.93354 | 28938 ft | 407 kts | 112° |
| 2026-04-18 01:13 | 8.13903 | 168.98558 | 28936 ft | 410 kts | 112° |
| 2026-04-18 01:14 | 8.11485 | 169.03794 | 28938 ft | 411 kts | 113° |
| 2026-04-18 01:14 | 8.09063 | 169.09028 | 28931 ft | 411 kts | 112° |
| 2026-04-18 01:15 | 8.06649 | 169.14246 | 28926 ft | 409 kts | 113° |
| 2026-04-18 01:15 | 8.04257 | 169.19413 | 28929 ft | 408 kts | 112° |
| 2026-04-18 01:16 | 8.01862 | 169.24593 | 28925 ft | 407 kts | 113° |
| 2026-04-18 01:16 | 7.99469 | 169.29761 | 28930 ft | 406 kts | 112° |
| 2026-04-18 01:17 | 7.97075 | 169.34932 | 28924 ft | 406 kts | 113° |
| 2026-04-18 01:17 | 7.94677 | 169.40106 | 28930 ft | 407 kts | 112° |
| 2026-04-18 01:18 | 7.92275 | 169.45286 | 28920 ft | 408 kts | 112° |
| 2026-04-18 01:18 | 7.89900 | 169.50407 | 28668 ft | 397 kts | 112° |
| 2026-04-18 01:19 | 7.88754 | 169.52874 | 28403 ft | 391 kts | 112° |
| 2026-04-18 01:19 | 7.87604 | 169.55358 | 27999 ft | 389 kts | 113° |
| 2026-04-18 01:19 | 7.86461 | 169.57821 | 27635 ft | 386 kts | 113° |
| 2026-04-18 01:19 | 7.85326 | 169.60269 | 27264 ft | 383 kts | 112° |
| 2026-04-18 01:20 | 7.84196 | 169.62700 | 26889 ft | 381 kts | 113° |
| 2026-04-18 01:20 | 7.83073 | 169.65114 | 26518 ft | 379 kts | 112° |
| 2026-04-18 01:20 | 7.81958 | 169.67513 | 26143 ft | 377 kts | 112° |
| 2026-04-18 01:20 | 7.80847 | 169.69903 | 25784 ft | 375 kts | 112° |
| 2026-04-18 01:21 | 7.79741 | 169.72284 | 25396 ft | 375 kts | 113° |
| 2026-04-18 01:21 | 7.78636 | 169.74665 | 25026 ft | 373 kts | 112° |
| 2026-04-18 01:21 | 7.77535 | 169.77037 | 24643 ft | 373 kts | 112° |
| 2026-04-18 01:21 | 7.76438 | 169.79399 | 24269 ft | 372 kts | 112° |
| 2026-04-18 01:22 | 7.75341 | 169.81760 | 23893 ft | 371 kts | 112° |
| 2026-04-18 01:22 | 7.74260 | 169.84084 | 23527 ft | 371 kts | 112° |
| 2026-04-18 01:22 | 7.73166 | 169.86438 | 23100 ft | 370 kts | 112° |
| 2026-04-18 01:22 | 7.72076 | 169.88781 | 22719 ft | 368 kts | 112° |
| 2026-04-18 01:23 | 7.70992 | 169.91110 | 22337 ft | 365 kts | 112° |
| 2026-04-18 01:23 | 7.69916 | 169.93423 | 21971 ft | 363 kts | 112° |
| 2026-04-18 01:23 | 7.68848 | 169.95717 | 21610 ft | 361 kts | 112° |
| 2026-04-18 01:23 | 7.67787 | 169.97999 | 21252 ft | 358 kts | 112° |
| 2026-04-18 01:24 | 7.66732 | 170.00265 | 20900 ft | 356 kts | 112° |
| 2026-04-18 01:24 | 7.65682 | 170.02519 | 20542 ft | 354 kts | 112° |
| 2026-04-18 01:24 | 7.64638 | 170.04762 | 20189 ft | 352 kts | 112° |
| 2026-04-18 01:24 | 7.63598 | 170.06994 | 19845 ft | 351 kts | 112° |
| 2026-04-18 01:25 | 7.62564 | 170.09215 | 19490 ft | 349 kts | 112° |
| 2026-04-18 01:25 | 7.61534 | 170.11425 | 19131 ft | 348 kts | 112° |
| 2026-04-18 01:25 | 7.60506 | 170.13634 | 18778 ft | 347 kts | 112° |
| 2026-04-18 01:25 | 7.59481 | 170.15832 | 18436 ft | 346 kts | 112° |
| 2026-04-18 01:26 | 7.58459 | 170.18026 | 18047 ft | 346 kts | 112° |
| 2026-04-18 01:26 | 7.57453 | 170.20185 | 17673 ft | 344 kts | 112° |
| 2026-04-18 01:26 | 7.56438 | 170.22363 | 17313 ft | 342 kts | 112° |
| 2026-04-18 01:26 | 7.55428 | 170.24528 | 16964 ft | 339 kts | 112° |
| 2026-04-18 01:27 | 7.54427 | 170.26674 | 16621 ft | 337 kts | 112° |
| 2026-04-18 01:27 | 7.53433 | 170.28805 | 16281 ft | 335 kts | 112° |
| 2026-04-18 01:27 | 7.52445 | 170.30924 | 15946 ft | 332 kts | 112° |
| 2026-04-18 01:27 | 7.51461 | 170.33032 | 15607 ft | 330 kts | 112° |
| 2026-04-18 01:28 | 7.50487 | 170.35121 | 15269 ft | 329 kts | 112° |
| 2026-04-18 01:28 | 7.49516 | 170.37201 | 14941 ft | 327 kts | 113° |
| 2026-04-18 01:28 | 7.48563 | 170.39242 | 14614 ft | 325 kts | 112° |
| 2026-04-18 01:28 | 7.47602 | 170.41302 | 14276 ft | 323 kts | 112° |
| 2026-04-18 01:29 | 7.46648 | 170.43347 | 13957 ft | 322 kts | 112° |
| 2026-04-18 01:29 | 7.45697 | 170.45384 | 13601 ft | 321 kts | 112° |
| 2026-04-18 01:29 | 7.44750 | 170.47412 | 13244 ft | 319 kts | 112° |
| 2026-04-18 01:29 | 7.43806 | 170.49433 | 12894 ft | 317 kts | 112° |
| 2026-04-18 01:30 | 7.42871 | 170.51433 | 12568 ft | 315 kts | 113° |
| 2026-04-18 01:30 | 7.41942 | 170.53422 | 12238 ft | 312 kts | 112° |
| 2026-04-18 01:30 | 7.41019 | 170.55396 | 11917 ft | 310 kts | 112° |
| 2026-04-18 01:30 | 7.40103 | 170.57358 | 11598 ft | 308 kts | 112° |
| 2026-04-18 01:31 | 7.39204 | 170.59281 | 11285 ft | 306 kts | 112° |
| 2026-04-18 01:31 | 7.38298 | 170.61219 | 10968 ft | 305 kts | 112° |
| 2026-04-18 01:31 | 7.37398 | 170.63145 | 10653 ft | 303 kts | 113° |
| 2026-04-18 01:31 | 7.36502 | 170.65061 | 10337 ft | 302 kts | 112° |
| 2026-04-18 01:32 | 7.35613 | 170.66964 | 10123 ft | 297 kts | 112° |
| 2026-04-18 01:32 | 7.34746 | 170.68816 | 9991 ft | 289 kts | 112° |
| 2026-04-18 01:32 | 7.33892 | 170.70640 | 9736 ft | 287 kts | 112° |
| 2026-04-18 01:32 | 7.33045 | 170.72454 | 9431 ft | 286 kts | 112° |
| 2026-04-18 01:33 | 7.32202 | 170.74258 | 9125 ft | 284 kts | 112° |
| 2026-04-18 01:33 | 7.31364 | 170.76049 | 8840 ft | 282 kts | 112° |
| 2026-04-18 01:33 | 7.30531 | 170.77828 | 8559 ft | 280 kts | 112° |
| 2026-04-18 01:33 | 7.29703 | 170.79599 | 8274 ft | 278 kts | 113° |
| 2026-04-18 01:34 | 7.28880 | 170.81355 | 7993 ft | 276 kts | 113° |
| 2026-04-18 01:34 | 7.27951 | 170.83038 | 7701 ft | 274 kts | 126° |
| 2026-04-18 01:34 | 7.26668 | 170.84416 | 7480 ft | 266 kts | 131° |
| 2026-04-18 01:34 | 7.25392 | 170.85703 | 7210 ft | 260 kts | 131° |
| 2026-04-18 01:35 | 7.24129 | 170.86978 | 6961 ft | 254 kts | 132° |
| 2026-04-18 01:35 | 7.22900 | 170.88226 | 6709 ft | 248 kts | 131° |
| 2026-04-18 01:35 | 7.21701 | 170.89450 | 6463 ft | 243 kts | 131° |
| 2026-04-18 01:35 | 7.20509 | 170.90675 | 6216 ft | 248 kts | 131° |
| 2026-04-18 01:36 | 7.19280 | 170.91942 | 5971 ft | 256 kts | 131° |
| 2026-04-18 01:36 | 7.18035 | 170.93227 | 5691 ft | 256 kts | 131° |
| 2026-04-18 01:36 | 7.16792 | 170.94510 | 5423 ft | 255 kts | 131° |
| 2026-04-18 01:36 | 7.15554 | 170.95789 | 5157 ft | 255 kts | 131° |
| 2026-04-18 01:37 | 7.14318 | 170.97067 | 4901 ft | 254 kts | 131° |
| 2026-04-18 01:37 | 7.13087 | 170.98340 | 4649 ft | 253 kts | 131° |
| 2026-04-18 01:37 | 7.11856 | 170.99614 | 4378 ft | 253 kts | 131° |
| 2026-04-18 01:37 | 7.10628 | 171.00885 | 4099 ft | 253 kts | 131° |
| 2026-04-18 01:38 | 7.09402 | 171.02152 | 3893 ft | 250 kts | 131° |
| 2026-04-18 01:38 | 7.08206 | 171.03386 | 3775 ft | 243 kts | 131° |
| 2026-04-18 01:38 | 7.07076 | 171.04590 | 3657 ft | 236 kts | 129° |
| 2026-04-18 01:38 | 7.05982 | 171.05783 | 3551 ft | 228 kts | 129° |
| 2026-04-18 01:39 | 7.04927 | 171.06934 | 3540 ft | 223 kts | 129° |
| 2026-04-18 01:39 | 7.03854 | 171.08102 | 3387 ft | 227 kts | 129° |
| 2026-04-18 01:39 | 7.02876 | 171.09331 | 3115 ft | 222 kts | 113° |
| 2026-04-18 01:39 | 7.02570 | 171.10801 | 2892 ft | 210 kts | 89° |
| 2026-04-18 01:40 | 7.02784 | 171.12197 | 2683 ft | 196 kts | 75° |
| 2026-04-18 01:40 | 7.03118 | 171.13494 | 2457 ft | 187 kts | 76° |
| 2026-04-18 01:40 | 7.03425 | 171.14721 | 2273 ft | 176 kts | 76° |
| 2026-04-18 01:40 | 7.03722 | 171.15915 | 2035 ft | 175 kts | 77° |
| 2026-04-18 01:41 | 7.04014 | 171.17097 | 1787 ft | 170 kts | 77° |
| 2026-04-18 01:41 | 7.04292 | 171.18219 | 1553 ft | 159 kts | 76° |
| 2026-04-18 01:41 | 7.04550 | 171.19264 | 1366 ft | 152 kts | 76° |
| 2026-04-18 01:41 | 7.04796 | 171.20263 | 1153 ft | 144 kts | 76° |
| 2026-04-18 01:42 | 7.05030 | 171.21210 | 931 ft | 136 kts | 76° |
| 2026-04-18 01:42 | 7.05258 | 171.22148 | 777 ft | 140 kts | 76° |
| 2026-04-18 01:42 | 7.05490 | 171.23125 | 636 ft | 146 kts | 75° |
| 2026-04-18 01:42 | 7.05740 | 171.24123 | 426 ft | 147 kts | 76° |
| 2026-04-18 01:43 | 7.05988 | 171.25123 | 235 ft | 146 kts | 77° |
| 2026-04-18 01:43 | 7.06232 | 171.26112 | 41 ft | 144 kts | 76° |
| 2026-04-18 01:43 | 7.06450 | 171.27006 | 2 ft | 109 kts | 76° |
| 2026-04-18 01:43 | 7.06578 | 171.27529 | 0 ft | 45 kts | 76° |
| 2026-04-18 01:44 | 7.06647 | 171.27815 | 1 ft | 37 kts | 76° |
| 2026-04-18 01:44 | 7.06699 | 171.28022 | 1 ft | 17 kts | 76° |
| 2026-04-18 01:44 | 7.06730 | 171.28088 | 1 ft | 4 kts | 23° |
| 2026-04-18 01:44 | 7.06749 | 171.28084 | 2 ft | 4 kts | 340° |
| 2026-04-18 01:45 | 7.06777 | 171.28077 | 2 ft | 4 kts | 355° |
| 2026-04-18 01:45 | 7.06797 | 171.28081 | 3 ft | 3 kts | 23° |
| 2026-04-18 01:45 | 7.06824 | 171.28103 | 4 ft | 6 kts | 58° |
| 2026-04-18 01:45 | 7.06839 | 171.28131 | 4 ft | 7 kts | 54° |
| 2026-04-18 01:46 | 7.06853 | 171.28166 | 6 ft | 5 kts | 91° |
| 2026-04-18 01:46 | 7.06842 | 171.28189 | 4 ft | 0 kts | 123° |